sensor_id;sensor_type;location;lat;lon;timestamp;P1;durP1;ratioP1;P2;durP2;ratioP2
65665;SDS011;52365;47.464;18.976;2024-02-21T00:00:16;4.32;;;2.70;;
65665;SDS011;52365;47.464;18.976;2024-02-21T00:00:38;3.75;;;2.40;;
65665;SDS011;52365;47.464;18.976;2024-02-21T00:00:59;3.87;;;2.40;;
65665;SDS011;52365;47.464;18.976;2024-02-21T00:01:21;3.33;;;2.50;;
65665;SDS011;52365;47.464;18.976;2024-02-21T00:01:43;3.72;;;2.58;;
65665;SDS011;52365;47.464;18.976;2024-02-21T00:02:04;3.12;;;2.20;;
65665;SDS011;52365;47.464;18.976;2024-02-21T00:02:25;2.72;;;2.17;;
65665;SDS011;52365;47.464;18.976;2024-02-21T00:02:46;2.90;;;2.30;;
65665;SDS011;52365;47.464;18.976;2024-02-21T00:03:07;3.80;;;2.42;;
65665;SDS011;52365;47.464;18.976;2024-02-21T00:03:28;3.90;;;2.30;;
65665;SDS011;52365;47.464;18.976;2024-02-21T00:03:49;3.35;;;2.10;;
65665;SDS011;52365;47.464;18.976;2024-02-21T00:04:10;3.60;;;2.20;;
65665;SDS011;52365;47.464;18.976;2024-02-21T00:04:31;4.85;;;2.72;;
65665;SDS011;52365;47.464;18.976;2024-02-21T00:04:47;4.57;;;2.62;;
65665;SDS011;52365;47.464;18.976;2024-02-21T00:05:08;4.28;;;2.35;;
65665;SDS011;52365;47.464;18.976;2024-02-21T00:05:29;3.85;;;2.40;;
65665;SDS011;52365;47.464;18.976;2024-02-21T00:05:50;3.80;;;2.40;;
65665;SDS011;52365;47.464;18.976;2024-02-21T00:06:11;3.15;;;2.40;;
65665;SDS011;52365;47.464;18.976;2024-02-21T00:06:32;3.17;;;2.30;;
65665;SDS011;52365;47.464;18.976;2024-02-21T00:06:53;3.12;;;2.33;;
65665;SDS011;52365;47.464;18.976;2024-02-21T00:07:14;3.73;;;2.40;;
65665;SDS011;52365;47.464;18.976;2024-02-21T00:07:34;4.07;;;2.55;;
65665;SDS011;52365;47.464;18.976;2024-02-21T00:07:55;3.75;;;2.42;;
65665;SDS011;52365;47.464;18.976;2024-02-21T00:08:18;3.42;;;2.20;;
65665;SDS011;52365;47.464;18.976;2024-02-21T00:08:39;4.05;;;2.33;;
65665;SDS011;52365;47.464;18.976;2024-02-21T00:09:00;3.53;;;2.30;;
65665;SDS011;52365;47.464;18.976;2024-02-21T00:09:21;4.18;;;2.37;;
65665;SDS011;52365;47.464;18.976;2024-02-21T00:09:42;3.62;;;2.40;;
65665;SDS011;52365;47.464;18.976;2024-02-21T00:10:03;3.60;;;2.28;;
65665;SDS011;52365;47.464;18.976;2024-02-21T00:10:25;4.30;;;2.40;;
65665;SDS011;52365;47.464;18.976;2024-02-21T00:10:46;3.85;;;2.60;;
65665;SDS011;52365;47.464;18.976;2024-02-21T00:11:07;3.53;;;2.37;;
65665;SDS011;52365;47.464;18.976;2024-02-21T00:11:28;3.87;;;2.35;;
65665;SDS011;52365;47.464;18.976;2024-02-21T00:11:44;4.32;;;2.50;;
65665;SDS011;52365;47.464;18.976;2024-02-21T00:12:05;3.97;;;2.65;;
65665;SDS011;52365;47.464;18.976;2024-02-21T00:12:26;4.07;;;2.50;;
65665;SDS011;52365;47.464;18.976;2024-02-21T00:12:47;3.40;;;2.28;;
65665;SDS011;52365;47.464;18.976;2024-02-21T00:13:08;3.55;;;2.20;;
65665;SDS011;52365;47.464;18.976;2024-02-21T00:13:29;4.28;;;2.30;;
65665;SDS011;52365;47.464;18.976;2024-02-21T00:13:50;3.28;;;2.17;;
65665;SDS011;52365;47.464;18.976;2024-02-21T00:14:11;2.95;;;2.20;;
65665;SDS011;52365;47.464;18.976;2024-02-21T00:14:32;3.62;;;2.35;;
65665;SDS011;52365;47.464;18.976;2024-02-21T00:14:53;3.45;;;2.20;;
65665;SDS011;52365;47.464;18.976;2024-02-21T00:15:14;3.87;;;2.20;;
65665;SDS011;52365;47.464;18.976;2024-02-21T00:15:35;4.18;;;2.30;;
65665;SDS011;52365;47.464;18.976;2024-02-21T00:15:56;3.58;;;2.37;;
65665;SDS011;52365;47.464;18.976;2024-02-21T00:16:17;3.37;;;2.25;;
65665;SDS011;52365;47.464;18.976;2024-02-21T00:16:38;3.45;;;2.30;;
65665;SDS011;52365;47.464;18.976;2024-02-21T00:16:59;3.50;;;2.10;;
65665;SDS011;52365;47.464;18.976;2024-02-21T00:17:19;3.72;;;2.20;;
65665;SDS011;52365;47.464;18.976;2024-02-21T00:17:40;3.55;;;2.17;;
65665;SDS011;52365;47.464;18.976;2024-02-21T00:18:01;3.78;;;2.12;;
65665;SDS011;52365;47.464;18.976;2024-02-21T00:18:22;4.07;;;2.20;;
65665;SDS011;52365;47.464;18.976;2024-02-21T00:18:43;4.47;;;2.20;;
65665;SDS011;52365;47.464;18.976;2024-02-21T00:19:04;3.58;;;2.30;;
65665;SDS011;52365;47.464;18.976;2024-02-21T00:19:25;3.35;;;2.05;;
65665;SDS011;52365;47.464;18.976;2024-02-21T00:19:46;4.22;;;2.00;;
65665;SDS011;52365;47.464;18.976;2024-02-21T00:20:07;3.37;;;2.10;;
65665;SDS011;52365;47.464;18.976;2024-02-21T00:20:29;2.53;;;1.80;;
65665;SDS011;52365;47.464;18.976;2024-02-21T00:20:50;3.10;;;2.12;;
65665;SDS011;52365;47.464;18.976;2024-02-21T00:21:11;3.33;;;2.10;;
65665;SDS011;52365;47.464;18.976;2024-02-21T00:21:38;4.70;;;2.40;;
65665;SDS011;52365;47.464;18.976;2024-02-21T00:21:59;4.32;;;2.10;;
65665;SDS011;52365;47.464;18.976;2024-02-21T00:22:20;3.55;;;2.17;;
65665;SDS011;52365;47.464;18.976;2024-02-21T00:22:41;3.72;;;2.15;;
65665;SDS011;52365;47.464;18.976;2024-02-21T00:23:02;2.97;;;1.90;;
65665;SDS011;52365;47.464;18.976;2024-02-21T00:23:23;3.45;;;1.98;;
65665;SDS011;52365;47.464;18.976;2024-02-21T00:23:44;3.50;;;2.15;;
65665;SDS011;52365;47.464;18.976;2024-02-21T00:24:08;3.50;;;2.20;;
65665;SDS011;52365;47.464;18.976;2024-02-21T00:24:29;3.90;;;2.00;;
65665;SDS011;52365;47.464;18.976;2024-02-21T00:24:52;3.15;;;1.70;;
65665;SDS011;52365;47.464;18.976;2024-02-21T00:25:13;3.20;;;1.90;;
65665;SDS011;52365;47.464;18.976;2024-02-21T00:25:34;3.08;;;1.80;;
65665;SDS011;52365;47.464;18.976;2024-02-21T00:25:55;4.68;;;1.80;;
65665;SDS011;52365;47.464;18.976;2024-02-21T00:26:16;2.80;;;1.92;;
65665;SDS011;52365;47.464;18.976;2024-02-21T00:26:37;3.12;;;1.98;;
65665;SDS011;52365;47.464;18.976;2024-02-21T00:26:58;3.28;;;2.00;;
65665;SDS011;52365;47.464;18.976;2024-02-21T00:27:19;4.18;;;1.80;;
65665;SDS011;52365;47.464;18.976;2024-02-21T00:27:40;3.75;;;1.85;;
65665;SDS011;52365;47.464;18.976;2024-02-21T00:28:01;3.47;;;1.80;;
65665;SDS011;52365;47.464;18.976;2024-02-21T00:28:22;3.10;;;1.87;;
65665;SDS011;52365;47.464;18.976;2024-02-21T00:28:42;2.92;;;1.77;;
65665;SDS011;52365;47.464;18.976;2024-02-21T00:29:03;3.28;;;1.73;;
65665;SDS011;52365;47.464;18.976;2024-02-21T00:29:26;3.22;;;1.80;;
65665;SDS011;52365;47.464;18.976;2024-02-21T00:29:47;3.10;;;1.83;;
65665;SDS011;52365;47.464;18.976;2024-02-21T00:30:09;3.08;;;1.92;;
65665;SDS011;52365;47.464;18.976;2024-02-21T00:30:30;2.92;;;1.80;;
65665;SDS011;52365;47.464;18.976;2024-02-21T00:30:51;3.00;;;1.80;;
65665;SDS011;52365;47.464;18.976;2024-02-21T00:31:13;3.50;;;1.83;;
65665;SDS011;52365;47.464;18.976;2024-02-21T00:31:34;3.47;;;1.87;;
65665;SDS011;52365;47.464;18.976;2024-02-21T00:31:55;3.60;;;1.98;;
65665;SDS011;52365;47.464;18.976;2024-02-21T00:32:16;3.65;;;1.87;;
65665;SDS011;52365;47.464;18.976;2024-02-21T00:32:37;4.00;;;1.73;;
65665;SDS011;52365;47.464;18.976;2024-02-21T00:32:58;3.15;;;1.75;;
65665;SDS011;52365;47.464;18.976;2024-02-21T00:33:19;2.42;;;1.70;;
65665;SDS011;52365;47.464;18.976;2024-02-21T00:33:40;2.95;;;1.60;;
65665;SDS011;52365;47.464;18.976;2024-02-21T00:34:00;3.95;;;1.87;;
65665;SDS011;52365;47.464;18.976;2024-02-21T00:34:21;4.35;;;2.10;;
65665;SDS011;52365;47.464;18.976;2024-02-21T00:34:43;3.20;;;1.87;;
65665;SDS011;52365;47.464;18.976;2024-02-21T00:35:04;2.70;;;1.70;;
65665;SDS011;52365;47.464;18.976;2024-02-21T00:35:25;3.42;;;2.10;;
65665;SDS011;52365;47.464;18.976;2024-02-21T00:35:46;2.85;;;1.90;;
65665;SDS011;52365;47.464;18.976;2024-02-21T00:36:07;3.45;;;1.90;;
65665;SDS011;52365;47.464;18.976;2024-02-21T00:36:28;4.80;;;1.90;;
65665;SDS011;52365;47.464;18.976;2024-02-21T00:36:49;4.37;;;1.95;;
65665;SDS011;52365;47.464;18.976;2024-02-21T00:37:10;3.10;;;1.85;;
65665;SDS011;52365;47.464;18.976;2024-02-21T00:37:31;3.80;;;1.67;;
65665;SDS011;52365;47.464;18.976;2024-02-21T00:37:52;3.42;;;1.75;;
65665;SDS011;52365;47.464;18.976;2024-02-21T00:38:13;3.70;;;1.90;;
65665;SDS011;52365;47.464;18.976;2024-02-21T00:38:34;4.15;;;1.73;;
65665;SDS011;52365;47.464;18.976;2024-02-21T00:38:55;3.65;;;1.80;;
65665;SDS011;52365;47.464;18.976;2024-02-21T00:39:16;2.90;;;1.62;;
65665;SDS011;52365;47.464;18.976;2024-02-21T00:39:37;3.33;;;1.85;;
65665;SDS011;52365;47.464;18.976;2024-02-21T00:39:58;4.03;;;2.00;;
65665;SDS011;52365;47.464;18.976;2024-02-21T00:40:19;3.53;;;1.80;;
65665;SDS011;52365;47.464;18.976;2024-02-21T00:40:40;2.30;;;1.70;;
65665;SDS011;52365;47.464;18.976;2024-02-21T00:41:02;2.55;;;1.80;;
65665;SDS011;52365;47.464;18.976;2024-02-21T00:41:23;4.32;;;1.85;;
65665;SDS011;52365;47.464;18.976;2024-02-21T00:41:44;3.28;;;1.67;;
65665;SDS011;52365;47.464;18.976;2024-02-21T00:42:05;3.08;;;1.60;;
65665;SDS011;52365;47.464;18.976;2024-02-21T00:42:22;3.10;;;1.75;;
65665;SDS011;52365;47.464;18.976;2024-02-21T00:42:43;4.55;;;1.80;;
65665;SDS011;52365;47.464;18.976;2024-02-21T00:43:04;3.08;;;1.90;;
65665;SDS011;52365;47.464;18.976;2024-02-21T00:43:25;3.83;;;1.83;;
65665;SDS011;52365;47.464;18.976;2024-02-21T00:43:46;3.70;;;1.90;;
65665;SDS011;52365;47.464;18.976;2024-02-21T00:44:09;2.70;;;1.52;;
65665;SDS011;52365;47.464;18.976;2024-02-21T00:44:30;2.65;;;1.50;;
65665;SDS011;52365;47.464;18.976;2024-02-21T00:44:51;2.47;;;1.48;;
65665;SDS011;52365;47.464;18.976;2024-02-21T00:45:12;4.00;;;1.77;;
65665;SDS011;52365;47.464;18.976;2024-02-21T00:45:33;3.40;;;1.60;;
65665;SDS011;52365;47.464;18.976;2024-02-21T00:45:54;3.70;;;1.60;;
65665;SDS011;52365;47.464;18.976;2024-02-21T00:46:15;3.40;;;1.70;;
65665;SDS011;52365;47.464;18.976;2024-02-21T00:46:36;2.50;;;1.70;;
65665;SDS011;52365;47.464;18.976;2024-02-21T00:46:59;2.37;;;1.65;;
65665;SDS011;52365;47.464;18.976;2024-02-21T00:47:20;2.97;;;1.80;;
65665;SDS011;52365;47.464;18.976;2024-02-21T00:47:41;3.12;;;1.73;;
65665;SDS011;52365;47.464;18.976;2024-02-21T00:48:02;2.97;;;1.60;;
65665;SDS011;52365;47.464;18.976;2024-02-21T00:48:24;3.87;;;1.70;;
65665;SDS011;52365;47.464;18.976;2024-02-21T00:48:44;2.75;;;1.60;;
65665;SDS011;52365;47.464;18.976;2024-02-21T00:49:05;3.40;;;1.92;;
65665;SDS011;52365;47.464;18.976;2024-02-21T00:49:27;2.80;;;1.90;;
65665;SDS011;52365;47.464;18.976;2024-02-21T00:49:48;3.47;;;1.70;;
65665;SDS011;52365;47.464;18.976;2024-02-21T00:50:09;3.37;;;1.80;;
65665;SDS011;52365;47.464;18.976;2024-02-21T00:50:30;5.12;;;2.90;;
65665;SDS011;52365;47.464;18.976;2024-02-21T00:50:51;7.15;;;4.85;;
65665;SDS011;52365;47.464;18.976;2024-02-21T00:51:12;11.15;;;7.05;;
65665;SDS011;52365;47.464;18.976;2024-02-21T00:51:33;6.43;;;3.37;;
65665;SDS011;52365;47.464;18.976;2024-02-21T00:51:54;8.25;;;4.40;;
65665;SDS011;52365;47.464;18.976;2024-02-21T00:52:15;7.20;;;4.10;;
65665;SDS011;52365;47.464;18.976;2024-02-21T00:52:36;5.45;;;3.35;;
65665;SDS011;52365;47.464;18.976;2024-02-21T00:52:57;4.03;;;2.05;;
65665;SDS011;52365;47.464;18.976;2024-02-21T00:53:18;2.97;;;1.67;;
65665;SDS011;52365;47.464;18.976;2024-02-21T00:53:39;3.70;;;1.70;;
65665;SDS011;52365;47.464;18.976;2024-02-21T00:54:00;3.47;;;1.90;;
65665;SDS011;52365;47.464;18.976;2024-02-21T00:54:22;2.80;;;1.50;;
65665;SDS011;52365;47.464;18.976;2024-02-21T00:54:43;2.83;;;1.70;;
65665;SDS011;52365;47.464;18.976;2024-02-21T00:55:04;3.08;;;1.62;;
65665;SDS011;52365;47.464;18.976;2024-02-21T00:55:25;3.33;;;1.70;;
65665;SDS011;52365;47.464;18.976;2024-02-21T00:55:46;2.33;;;1.65;;
65665;SDS011;52365;47.464;18.976;2024-02-21T00:56:07;2.80;;;1.80;;
65665;SDS011;52365;47.464;18.976;2024-02-21T00:56:28;2.33;;;1.58;;
65665;SDS011;52365;47.464;18.976;2024-02-21T00:56:50;2.47;;;1.80;;
65665;SDS011;52365;47.464;18.976;2024-02-21T00:57:11;3.25;;;1.62;;
65665;SDS011;52365;47.464;18.976;2024-02-21T00:57:32;3.97;;;1.70;;
65665;SDS011;52365;47.464;18.976;2024-02-21T00:57:53;3.28;;;1.87;;
65665;SDS011;52365;47.464;18.976;2024-02-21T00:58:14;3.17;;;1.83;;
65665;SDS011;52365;47.464;18.976;2024-02-21T00:58:35;4.20;;;1.67;;
65665;SDS011;52365;47.464;18.976;2024-02-21T00:58:56;4.00;;;1.70;;
65665;SDS011;52365;47.464;18.976;2024-02-21T00:59:17;4.35;;;1.60;;
65665;SDS011;52365;47.464;18.976;2024-02-21T00:59:38;2.92;;;1.60;;
65665;SDS011;52365;47.464;18.976;2024-02-21T00:59:59;4.60;;;1.75;;
65665;SDS011;52365;47.464;18.976;2024-02-21T01:00:20;4.57;;;1.80;;
65665;SDS011;52365;47.464;18.976;2024-02-21T01:00:41;2.72;;;1.58;;
65665;SDS011;52365;47.464;18.976;2024-02-21T01:01:02;3.12;;;1.55;;
65665;SDS011;52365;47.464;18.976;2024-02-21T01:01:24;3.28;;;1.65;;
65665;SDS011;52365;47.464;18.976;2024-02-21T01:01:46;3.47;;;1.52;;
65665;SDS011;52365;47.464;18.976;2024-02-21T01:02:06;3.47;;;1.70;;
65665;SDS011;52365;47.464;18.976;2024-02-21T01:02:27;3.53;;;1.52;;
65665;SDS011;52365;47.464;18.976;2024-02-21T01:02:48;4.80;;;1.77;;
65665;SDS011;52365;47.464;18.976;2024-02-21T01:03:09;4.60;;;1.80;;
65665;SDS011;52365;47.464;18.976;2024-02-21T01:03:30;3.37;;;1.60;;
65665;SDS011;52365;47.464;18.976;2024-02-21T01:03:46;3.25;;;1.65;;
65665;SDS011;52365;47.464;18.976;2024-02-21T01:04:07;2.45;;;1.58;;
65665;SDS011;52365;47.464;18.976;2024-02-21T01:04:28;2.70;;;1.60;;
65665;SDS011;52365;47.464;18.976;2024-02-21T01:04:49;2.65;;;1.55;;
65665;SDS011;52365;47.464;18.976;2024-02-21T01:05:10;3.37;;;1.62;;
65665;SDS011;52365;47.464;18.976;2024-02-21T01:05:30;4.95;;;1.58;;
65665;SDS011;52365;47.464;18.976;2024-02-21T01:05:51;3.17;;;1.48;;
65665;SDS011;52365;47.464;18.976;2024-02-21T01:06:12;2.83;;;1.50;;
65665;SDS011;52365;47.464;18.976;2024-02-21T01:06:33;2.87;;;1.45;;
65665;SDS011;52365;47.464;18.976;2024-02-21T01:06:54;2.78;;;1.50;;
65665;SDS011;52365;47.464;18.976;2024-02-21T01:07:15;3.37;;;1.60;;
65665;SDS011;52365;47.464;18.976;2024-02-21T01:07:36;5.60;;;1.70;;
65665;SDS011;52365;47.464;18.976;2024-02-21T01:07:57;3.78;;;1.50;;
65665;SDS011;52365;47.464;18.976;2024-02-21T01:08:18;3.67;;;1.50;;
65665;SDS011;52365;47.464;18.976;2024-02-21T01:08:39;4.47;;;1.60;;
65665;SDS011;52365;47.464;18.976;2024-02-21T01:09:00;5.15;;;1.70;;
65665;SDS011;52365;47.464;18.976;2024-02-21T01:09:21;3.20;;;1.60;;
65665;SDS011;52365;47.464;18.976;2024-02-21T01:09:42;4.10;;;1.70;;
65665;SDS011;52365;47.464;18.976;2024-02-21T01:10:03;4.18;;;1.55;;
65665;SDS011;52365;47.464;18.976;2024-02-21T01:10:24;3.22;;;1.50;;
65665;SDS011;52365;47.464;18.976;2024-02-21T01:10:45;2.72;;;1.35;;
65665;SDS011;52365;47.464;18.976;2024-02-21T01:11:06;3.72;;;1.62;;
65665;SDS011;52365;47.464;18.976;2024-02-21T01:11:27;3.90;;;1.95;;
65665;SDS011;52365;47.464;18.976;2024-02-21T01:11:48;2.87;;;1.65;;
65665;SDS011;52365;47.464;18.976;2024-02-21T01:12:09;3.28;;;1.62;;
65665;SDS011;52365;47.464;18.976;2024-02-21T01:12:30;3.47;;;1.60;;
65665;SDS011;52365;47.464;18.976;2024-02-21T01:12:51;2.87;;;1.50;;
65665;SDS011;52365;47.464;18.976;2024-02-21T01:13:12;3.03;;;1.50;;
65665;SDS011;52365;47.464;18.976;2024-02-21T01:13:32;3.17;;;1.60;;
65665;SDS011;52365;47.464;18.976;2024-02-21T01:13:54;2.60;;;1.40;;
65665;SDS011;52365;47.464;18.976;2024-02-21T01:14:16;3.60;;;1.60;;
65665;SDS011;52365;47.464;18.976;2024-02-21T01:14:37;3.42;;;1.60;;
65665;SDS011;52365;47.464;18.976;2024-02-21T01:14:58;2.05;;;1.40;;
65665;SDS011;52365;47.464;18.976;2024-02-21T01:15:19;2.92;;;1.60;;
65665;SDS011;52365;47.464;18.976;2024-02-21T01:15:39;4.00;;;1.70;;
65665;SDS011;52365;47.464;18.976;2024-02-21T01:16:00;3.83;;;1.60;;
65665;SDS011;52365;47.464;18.976;2024-02-21T01:16:21;4.22;;;1.77;;
65665;SDS011;52365;47.464;18.976;2024-02-21T01:16:42;3.22;;;1.50;;
65665;SDS011;52365;47.464;18.976;2024-02-21T01:17:03;3.37;;;1.50;;
65665;SDS011;52365;47.464;18.976;2024-02-21T01:17:26;3.00;;;1.50;;
65665;SDS011;52365;47.464;18.976;2024-02-21T01:17:47;2.95;;;1.50;;
65665;SDS011;52365;47.464;18.976;2024-02-21T01:18:10;3.10;;;1.50;;
65665;SDS011;52365;47.464;18.976;2024-02-21T01:18:31;3.25;;;1.45;;
65665;SDS011;52365;47.464;18.976;2024-02-21T01:18:55;3.75;;;1.62;;
65665;SDS011;52365;47.464;18.976;2024-02-21T01:19:16;4.00;;;1.62;;
65665;SDS011;52365;47.464;18.976;2024-02-21T01:19:37;4.37;;;1.50;;
65665;SDS011;52365;47.464;18.976;2024-02-21T01:19:58;3.92;;;1.40;;
65665;SDS011;52365;47.464;18.976;2024-02-21T01:20:19;4.10;;;1.52;;
65665;SDS011;52365;47.464;18.976;2024-02-21T01:20:40;4.43;;;1.58;;
65665;SDS011;52365;47.464;18.976;2024-02-21T01:21:01;3.95;;;1.50;;
65665;SDS011;52365;47.464;18.976;2024-02-21T01:21:22;3.05;;;1.45;;
65665;SDS011;52365;47.464;18.976;2024-02-21T01:21:42;2.70;;;1.50;;
65665;SDS011;52365;47.464;18.976;2024-02-21T01:22:04;3.35;;;1.60;;
65665;SDS011;52365;47.464;18.976;2024-02-21T01:22:25;5.95;;;1.70;;
65665;SDS011;52365;47.464;18.976;2024-02-21T01:22:46;4.15;;;1.48;;
65665;SDS011;52365;47.464;18.976;2024-02-21T01:23:07;2.87;;;1.30;;
65665;SDS011;52365;47.464;18.976;2024-02-21T01:23:28;2.70;;;1.50;;
65665;SDS011;52365;47.464;18.976;2024-02-21T01:23:49;3.37;;;1.50;;
65665;SDS011;52365;47.464;18.976;2024-02-21T01:24:10;3.50;;;1.60;;
65665;SDS011;52365;47.464;18.976;2024-02-21T01:24:26;3.37;;;1.60;;
65665;SDS011;52365;47.464;18.976;2024-02-21T01:24:47;4.30;;;1.52;;
65665;SDS011;52365;47.464;18.976;2024-02-21T01:25:08;3.47;;;1.60;;
65665;SDS011;52365;47.464;18.976;2024-02-21T01:25:29;2.60;;;1.40;;
65665;SDS011;52365;47.464;18.976;2024-02-21T01:25:50;3.25;;;1.50;;
65665;SDS011;52365;47.464;18.976;2024-02-21T01:26:11;3.20;;;1.50;;
65665;SDS011;52365;47.464;18.976;2024-02-21T01:26:29;3.67;;;1.50;;
65665;SDS011;52365;47.464;18.976;2024-02-21T01:26:50;3.78;;;1.60;;
65665;SDS011;52365;47.464;18.976;2024-02-21T01:27:11;3.78;;;1.60;;
65665;SDS011;52365;47.464;18.976;2024-02-21T01:27:32;3.10;;;1.50;;
65665;SDS011;52365;47.464;18.976;2024-02-21T01:27:53;2.42;;;1.50;;
65665;SDS011;52365;47.464;18.976;2024-02-21T01:28:14;3.20;;;1.70;;
65665;SDS011;52365;47.464;18.976;2024-02-21T01:28:34;2.55;;;1.37;;
65665;SDS011;52365;47.464;18.976;2024-02-21T01:28:56;2.95;;;1.80;;
65665;SDS011;52365;47.464;18.976;2024-02-21T01:29:17;3.67;;;1.80;;
65665;SDS011;52365;47.464;18.976;2024-02-21T01:29:38;5.07;;;1.60;;
65665;SDS011;52365;47.464;18.976;2024-02-21T01:29:59;4.32;;;1.48;;
65665;SDS011;52365;47.464;18.976;2024-02-21T01:30:19;2.75;;;1.30;;
65665;SDS011;52365;47.464;18.976;2024-02-21T01:30:40;3.45;;;1.40;;
65665;SDS011;52365;47.464;18.976;2024-02-21T01:31:01;2.85;;;1.40;;
65665;SDS011;52365;47.464;18.976;2024-02-21T01:31:22;4.03;;;1.40;;
65665;SDS011;52365;47.464;18.976;2024-02-21T01:31:43;5.68;;;1.67;;
65665;SDS011;52365;47.464;18.976;2024-02-21T01:32:07;3.42;;;1.60;;
65665;SDS011;52365;47.464;18.976;2024-02-21T01:32:28;3.10;;;1.37;;
65665;SDS011;52365;47.464;18.976;2024-02-21T01:32:49;4.35;;;1.60;;
65665;SDS011;52365;47.464;18.976;2024-02-21T01:33:09;3.30;;;1.55;;
65665;SDS011;52365;47.464;18.976;2024-02-21T01:33:30;2.75;;;1.50;;
65665;SDS011;52365;47.464;18.976;2024-02-21T01:33:55;2.87;;;1.30;;
65665;SDS011;52365;47.464;18.976;2024-02-21T01:34:16;3.08;;;1.50;;
65665;SDS011;52365;47.464;18.976;2024-02-21T01:34:37;2.90;;;1.40;;
65665;SDS011;52365;47.464;18.976;2024-02-21T01:34:58;3.53;;;1.50;;
65665;SDS011;52365;47.464;18.976;2024-02-21T01:35:19;4.50;;;1.37;;
65665;SDS011;52365;47.464;18.976;2024-02-21T01:35:40;3.87;;;1.55;;
65665;SDS011;52365;47.464;18.976;2024-02-21T01:36:01;3.75;;;1.67;;
65665;SDS011;52365;47.464;18.976;2024-02-21T01:36:23;3.37;;;1.40;;
65665;SDS011;52365;47.464;18.976;2024-02-21T01:36:44;4.50;;;1.58;;
65665;SDS011;52365;47.464;18.976;2024-02-21T01:37:05;3.50;;;1.37;;
65665;SDS011;52365;47.464;18.976;2024-02-21T01:37:27;8.00;;;5.10;;
65665;SDS011;52365;47.464;18.976;2024-02-21T01:37:48;5.20;;;3.33;;
65665;SDS011;52365;47.464;18.976;2024-02-21T01:38:09;5.30;;;3.50;;
65665;SDS011;52365;47.464;18.976;2024-02-21T01:38:31;6.87;;;4.20;;
65665;SDS011;52365;47.464;18.976;2024-02-21T01:38:52;10.80;;;7.00;;
65665;SDS011;52365;47.464;18.976;2024-02-21T01:39:13;11.73;;;7.32;;
65665;SDS011;52365;47.464;18.976;2024-02-21T01:39:34;5.75;;;3.50;;
65665;SDS011;52365;47.464;18.976;2024-02-21T01:39:55;5.28;;;2.15;;
65665;SDS011;52365;47.464;18.976;2024-02-21T01:40:16;4.80;;;1.60;;
65665;SDS011;52365;47.464;18.976;2024-02-21T01:40:37;3.62;;;1.52;;
65665;SDS011;52365;47.464;18.976;2024-02-21T01:40:58;4.50;;;1.60;;
65665;SDS011;52365;47.464;18.976;2024-02-21T01:41:19;3.55;;;1.85;;
65665;SDS011;52365;47.464;18.976;2024-02-21T01:41:40;3.75;;;1.75;;
65665;SDS011;52365;47.464;18.976;2024-02-21T01:42:02;3.33;;;1.50;;
65665;SDS011;52365;47.464;18.976;2024-02-21T01:42:23;3.40;;;1.52;;
65665;SDS011;52365;47.464;18.976;2024-02-21T01:42:44;4.22;;;1.75;;
65665;SDS011;52365;47.464;18.976;2024-02-21T01:43:14;4.65;;;1.75;;
65665;SDS011;52365;47.464;18.976;2024-02-21T01:43:36;4.10;;;1.60;;
65665;SDS011;52365;47.464;18.976;2024-02-21T01:43:57;3.08;;;1.50;;
65665;SDS011;52365;47.464;18.976;2024-02-21T01:44:18;2.60;;;1.40;;
65665;SDS011;52365;47.464;18.976;2024-02-21T01:44:39;3.70;;;1.50;;
65665;SDS011;52365;47.464;18.976;2024-02-21T01:45:00;4.78;;;1.70;;
65665;SDS011;52365;47.464;18.976;2024-02-21T01:45:21;3.87;;;1.60;;
65665;SDS011;52365;47.464;18.976;2024-02-21T01:45:42;4.75;;;1.90;;
65665;SDS011;52365;47.464;18.976;2024-02-21T01:46:04;4.55;;;2.00;;
65665;SDS011;52365;47.464;18.976;2024-02-21T01:46:24;3.70;;;1.60;;
65665;SDS011;52365;47.464;18.976;2024-02-21T01:46:51;4.05;;;1.70;;
65665;SDS011;52365;47.464;18.976;2024-02-21T01:47:15;3.58;;;1.62;;
65665;SDS011;52365;47.464;18.976;2024-02-21T01:47:36;2.42;;;1.50;;
65665;SDS011;52365;47.464;18.976;2024-02-21T01:47:58;3.58;;;1.55;;
65665;SDS011;52365;47.464;18.976;2024-02-21T01:48:19;3.67;;;1.40;;
65665;SDS011;52365;47.464;18.976;2024-02-21T01:48:40;2.97;;;1.40;;
65665;SDS011;52365;47.464;18.976;2024-02-21T01:49:01;3.37;;;1.48;;
65665;SDS011;52365;47.464;18.976;2024-02-21T01:49:23;3.03;;;1.60;;
65665;SDS011;52365;47.464;18.976;2024-02-21T01:49:44;2.70;;;1.45;;
65665;SDS011;52365;47.464;18.976;2024-02-21T01:50:06;3.12;;;1.50;;
65665;SDS011;52365;47.464;18.976;2024-02-21T01:50:27;2.70;;;1.42;;
65665;SDS011;52365;47.464;18.976;2024-02-21T01:50:49;4.55;;;1.70;;
65665;SDS011;52365;47.464;18.976;2024-02-21T01:51:11;3.33;;;1.50;;
65665;SDS011;52365;47.464;18.976;2024-02-21T01:51:32;4.47;;;1.62;;
65665;SDS011;52365;47.464;18.976;2024-02-21T01:51:53;3.80;;;1.70;;
65665;SDS011;52365;47.464;18.976;2024-02-21T01:52:15;3.40;;;1.60;;
65665;SDS011;52365;47.464;18.976;2024-02-21T01:52:37;4.65;;;1.60;;
65665;SDS011;52365;47.464;18.976;2024-02-21T01:52:59;4.00;;;1.52;;
65665;SDS011;52365;47.464;18.976;2024-02-21T01:53:25;3.50;;;1.62;;
65665;SDS011;52365;47.464;18.976;2024-02-21T01:53:50;3.45;;;1.58;;
65665;SDS011;52365;47.464;18.976;2024-02-21T01:54:13;3.58;;;1.65;;
65665;SDS011;52365;47.464;18.976;2024-02-21T01:54:36;4.85;;;1.73;;
65665;SDS011;52365;47.464;18.976;2024-02-21T01:54:57;4.32;;;1.70;;
65665;SDS011;52365;47.464;18.976;2024-02-21T01:55:18;3.47;;;1.73;;
65665;SDS011;52365;47.464;18.976;2024-02-21T01:55:39;3.70;;;1.67;;
65665;SDS011;52365;47.464;18.976;2024-02-21T01:56:00;3.25;;;1.60;;
65665;SDS011;52365;47.464;18.976;2024-02-21T01:56:23;4.57;;;1.62;;
65665;SDS011;52365;47.464;18.976;2024-02-21T01:56:44;4.62;;;1.70;;
65665;SDS011;52365;47.464;18.976;2024-02-21T01:57:07;4.15;;;1.62;;
65665;SDS011;52365;47.464;18.976;2024-02-21T01:57:29;3.53;;;1.52;;
65665;SDS011;52365;47.464;18.976;2024-02-21T01:57:50;3.75;;;1.70;;
65665;SDS011;52365;47.464;18.976;2024-02-21T01:58:13;5.05;;;2.28;;
65665;SDS011;52365;47.464;18.976;2024-02-21T01:58:35;3.47;;;1.55;;
65665;SDS011;52365;47.464;18.976;2024-02-21T01:58:57;3.03;;;1.45;;
65665;SDS011;52365;47.464;18.976;2024-02-21T01:59:18;3.65;;;1.60;;
65665;SDS011;52365;47.464;18.976;2024-02-21T01:59:42;4.37;;;1.67;;
65665;SDS011;52365;47.464;18.976;2024-02-21T02:00:03;4.22;;;1.70;;
65665;SDS011;52365;47.464;18.976;2024-02-21T02:00:25;4.03;;;1.60;;
65665;SDS011;52365;47.464;18.976;2024-02-21T02:00:47;2.55;;;1.70;;
65665;SDS011;52365;47.464;18.976;2024-02-21T02:01:09;4.32;;;1.67;;
65665;SDS011;52365;47.464;18.976;2024-02-21T02:01:31;4.12;;;1.65;;
65665;SDS011;52365;47.464;18.976;2024-02-21T02:01:51;4.12;;;1.60;;
65665;SDS011;52365;47.464;18.976;2024-02-21T02:02:13;2.37;;;1.40;;
65665;SDS011;52365;47.464;18.976;2024-02-21T02:02:34;2.60;;;1.52;;
65665;SDS011;52365;47.464;18.976;2024-02-21T02:02:56;3.30;;;1.62;;
65665;SDS011;52365;47.464;18.976;2024-02-21T02:03:17;2.97;;;1.50;;
65665;SDS011;52365;47.464;18.976;2024-02-21T02:03:38;3.42;;;1.50;;
65665;SDS011;52365;47.464;18.976;2024-02-21T02:03:59;3.37;;;1.60;;
65665;SDS011;52365;47.464;18.976;2024-02-21T02:04:20;4.22;;;1.58;;
65665;SDS011;52365;47.464;18.976;2024-02-21T02:04:41;4.47;;;1.60;;
65665;SDS011;52365;47.464;18.976;2024-02-21T02:05:03;3.60;;;1.50;;
65665;SDS011;52365;47.464;18.976;2024-02-21T02:05:25;3.40;;;1.40;;
65665;SDS011;52365;47.464;18.976;2024-02-21T02:05:48;3.58;;;1.50;;